Accueil
METAR-TAF:

METAR-TAF

Aéroports :

Aéroport de Newquay Cornouailles

Newquay Cornwall, Angleterre

latitude: 50-26N, longitude: 005-00W, altitude: 119 m

Observation

Le bulletin a été fait il y a 25 minutes, à 23:50 UTC
Vent 18 kt de est/nord-est
Température 6°C
Humidité 56%
Pression 1035 hPa
Visibilité 10 km ou plus

METAR: EGHQ 282350Z AUTO 06018KT 9999 NCD 06/M02 Q1035

Heure: 00:15 (00:15 UTC)

Prévision

Le bulletin a été fait il y a 1 heure et 21 minutes, à 22:54 UTC
Prévision valable du 29 à 00 UTC au 29 à 09 UTC
Vent 15 kt de nord-est
Visibilité 10 km ou plus
Quelques nuages à une hauteur de 3500 ft
Probabilité 30% :
Temporairement
du 29 à 00 UTC au 29 à 09 UTC
Vent 18 kt de nord-est avec des rafales jusqu'à 28 kt

TAF: EGHQ 282254Z 2900/2909 05015KT 9999 FEW035 PROB30 TEMPO 2900/2909 05018G28KT

Observations et prévisions météorologiques de plus de 4000 aéroports (messages METAR et TAF).

Les stations disponibles sont représentées par des disques jaunes et rouges sur la carte.

Passer la souris dessus pour voir le nom de la station.

Cliquer dessus pour voir les observations et prévisions météorologiques.

Pour changer de carte: cliquez sur les boutons verts avec une croix noire pour zoomer, sur le bouton vert avec un tiret pour effectuer un zoom arrière, ou sur les flèches vertes pour les cartes adjacentes.


METAR-TAF: